Time;durP1;ratioP1;P1;durP2;ratioP2;P2;SDS_P1;SDS_P2;PMS_P1;PMS_P2;Temp;Humidity;BMP_temperature;BMP_pressure;BME280_temperature;BME280_humidity;BME280_pressure;Samples;Min_cycle;Max_cycle;Signal;HPM_P1;HPM_P2
2022/06/03 00:01:30;;;;;;;;;;;12.90;99.90;;;;;;5109298;28;19943;-66
2022/06/03 00:04:03;;;;;;;;;;;12.90;99.90;;;;;;5108844;28;19914;-66
2022/06/03 00:06:47;;;;;;;;;;;12.80;99.90;;;;;;5110667;28;19908;-65
2022/06/03 00:09:15;;;;;;;;;;;12.80;99.90;;;;;;5112323;28;20320;-66
2022/06/03 00:11:49;;;;;;;;;;;12.70;99.90;;;;;;5112263;28;20291;-65
2022/06/03 00:14:15;;;;;;;;;;;12.60;99.90;;;;;;5112519;28;19934;-65
2022/06/03 00:16:47;;;;;;;;;;;12.50;99.90;;;;;;5127985;27;20299;-65
2022/06/03 00:19:27;;;;;;;;;;;12.40;99.90;;;;;;5112313;28;19915;-65
2022/06/03 00:22:03;;;;;;;;;;;12.30;99.90;;;;;;5111876;28;19910;-65
2022/06/03 00:24:28;;;;;;;;;;;12.20;99.90;;;;;;5112342;28;19904;-65
2022/06/03 00:26:57;;;;;;;;;;;12.10;99.90;;;;;;5111786;28;19904;-66
2022/06/03 00:29:31;;;;;;;;;;;12.10;99.90;;;;;;5111985;28;19915;-65
2022/06/03 00:31:56;;;;;;;;;;;12.10;99.90;;;;;;5111871;28;19907;-65
2022/06/03 00:34:21;;;;;;;;;;;12.10;99.90;;;;;;5111871;28;19903;-65
2022/06/03 00:36:53;;;;;;;;;;;12.10;99.90;;;;;;5111483;28;19924;-65
2022/06/03 00:39:19;;;;;;;;;;;12.10;99.90;;;;;;5111720;28;20386;-66
2022/06/03 00:41:50;;;;;;;;;;;12.10;99.90;;;;;;5111687;28;19912;-65
2022/06/03 00:44:15;;;;;;;;;;;12.00;99.90;;;;;;5111210;28;20419;-65
2022/06/03 00:46:44;;;;;;;;;;;12.00;99.90;;;;;;5091951;28;20003;-65
2022/06/03 00:49:09;;;;;;;;;;;11.90;99.90;;;;;;5096976;28;20073;-65
2022/06/03 00:51:53;;;;;;;;;;;11.90;99.90;;;;;;5111422;28;20081;-65
2022/06/03 00:54:37;;;;;;;;;;;11.90;99.90;;;;;;5111499;28;19911;-65
2022/06/03 00:57:12;;;;;;;;;;;11.80;99.90;;;;;;5111320;28;20268;-65
2022/06/03 00:59:43;;;;;;;;;;;11.80;99.90;;;;;;5111365;28;19903;-65
2022/06/03 01:02:27;;;;;;;;;;;11.80;99.90;;;;;;5110027;28;19922;-65
2022/06/03 01:04:56;;;;;;;;;;;11.90;99.90;;;;;;5108210;28;19918;-65
2022/06/03 01:07:48;;;;;;;;;;;11.90;99.90;;;;;;5109410;28;19910;-65
2022/06/03 01:10:30;;;;;;;;;;;11.90;99.90;;;;;;5110645;28;19903;-65
2022/06/03 01:13:12;;;;;;;;;;;11.90;99.90;;;;;;5110997;28;19908;-64
2022/06/03 01:15:56;;;;;;;;;;;11.90;99.90;;;;;;5111155;28;19911;-65
2022/06/03 01:18:22;;;;;;;;;;;11.90;99.90;;;;;;5111134;28;19907;-65
2022/06/03 01:20:53;;;;;;;;;;;11.80;99.90;;;;;;5111037;28;20048;-65
2022/06/03 01:23:37;;;;;;;;;;;11.70;99.90;;;;;;5111026;28;19942;-65
2022/06/03 01:26:26;;;;;;;;;;;11.60;99.90;;;;;;5110905;28;19908;-65
2022/06/03 01:29:11;;;;;;;;;;;11.70;99.90;;;;;;5081737;28;19908;-64
2022/06/03 01:31:57;;;;;;;;;;;11.70;99.90;;;;;;5110827;28;20327;-64
2022/06/03 01:34:22;;;;;;;;;;;11.80;99.90;;;;;;5111142;28;19934;-64
2022/06/03 01:36:53;;;;;;;;;;;11.90;99.90;;;;;;5110673;28;19967;-65
2022/06/03 01:39:22;;;;;;;;;;;11.90;99.90;;;;;;5110849;28;20317;-65
2022/06/03 01:41:53;;;;;;;;;;;12.00;99.90;;;;;;5110758;28;19961;-65
2022/06/03 01:44:33;;;;;;;;;;;12.00;99.90;;;;;;5110567;28;19907;-65
2022/06/03 01:47:10;;;;;;;;;;;11.90;99.90;;;;;;5109688;28;19911;-65
2022/06/03 01:49:39;;;;;;;;;;;11.80;99.90;;;;;;5102587;28;19988;-65
2022/06/03 01:52:10;;;;;;;;;;;11.70;99.90;;;;;;5107430;28;19934;-65
2022/06/03 01:54:39;;;;;;;;;;;11.70;99.90;;;;;;5107649;28;19914;-65
2022/06/03 01:57:23;;;;;;;;;;;11.60;99.90;;;;;;5107734;28;19912;-65
2022/06/03 01:59:51;;;;;;;;;;;11.60;99.90;;;;;;5107550;28;19938;-65
2022/06/03 02:02:19;;;;;;;;;;;11.60;99.90;;;;;;5107491;28;20378;-65
2022/06/03 02:04:51;;;;;;;;;;;11.60;99.90;;;;;;5108803;28;19904;-65
2022/06/03 02:07:16;;;;;;;;;;;11.60;99.90;;;;;;5110756;28;19915;-65
2022/06/03 02:09:54;;;;;;;;;;;11.50;99.90;;;;;;5110638;28;19904;-64
2022/06/03 02:12:28;;;;;;;;;;;11.50;99.90;;;;;;5110632;28;19910;-65
2022/06/03 02:14:57;;;;;;;;;;;11.40;99.90;;;;;;5110573;28;20388;-64
2022/06/03 02:17:41;;;;;;;;;;;11.40;99.90;;;;;;5108771;28;19916;-65
2022/06/03 02:20:24;;;;;;;;;;;11.40;99.90;;;;;;5107304;28;19908;-65
2022/06/03 02:23:09;;;;;;;;;;;11.40;99.90;;;;;;5111406;28;19930;-65
2022/06/03 02:25:46;;;;;;;;;;;11.40;99.90;;;;;;5111091;28;20349;-65
2022/06/03 02:28:38;;;;;;;;;;;11.40;99.90;;;;;;5113703;28;19907;-65
2022/06/03 02:31:23;;;;;;;;;;;11.40;99.90;;;;;;5090092;28;19903;-65
2022/06/03 02:33:52;;;;;;;;;;;11.30;99.90;;;;;;5114331;28;19912;-65
2022/06/03 02:36:33;;;;;;;;;;;11.30;99.90;;;;;;5113819;28;19915;-64
2022/06/03 02:38:58;;;;;;;;;;;11.30;99.90;;;;;;5114384;28;19912;-65
2022/06/03 02:41:42;;;;;;;;;;;11.20;99.90;;;;;;5113931;28;19911;-65
2022/06/03 02:44:25;;;;;;;;;;;11.20;99.90;;;;;;5113498;28;19995;-65
2022/06/03 02:47:18;;;;;;;;;;;11.20;99.90;;;;;;5114121;28;19931;-65
2022/06/03 02:49:59;;;;;;;;;;;11.20;99.90;;;;;;5082343;28;19907;-65
2022/06/03 02:52:39;;;;;;;;;;;11.20;99.90;;;;;;5113975;27;19948;-65
2022/06/03 02:55:24;;;;;;;;;;;11.20;99.90;;;;;;5113914;28;19914;-65
2022/06/03 02:57:49;;;;;;;;;;;11.20;99.90;;;;;;5113363;28;19912;-65
2022/06/03 03:00:19;;;;;;;;;;;11.20;99.90;;;;;;5114142;28;19964;-65
2022/06/03 03:03:00;;;;;;;;;;;11.20;99.90;;;;;;5113904;28;19908;-65
2022/06/03 03:05:54;;;;;;;;;;;11.20;99.90;;;;;;5113545;28;19936;-65
2022/06/03 03:08:32;;;;;;;;;;;11.20;99.90;;;;;;5099853;28;19914;-64
2022/06/03 03:11:17;;;;;;;;;;;11.20;99.90;;;;;;5113837;28;19908;-64
2022/06/03 03:13:48;;;;;;;;;;;11.10;99.90;;;;;;5113690;28;19957;-65
2022/06/03 03:16:35;;;;;;;;;;;11.00;99.90;;;;;;5113534;28;19914;-64
2022/06/03 03:19:17;;;;;;;;;;;11.00;99.90;;;;;;5113418;28;19947;-64
2022/06/03 03:21:59;;;;;;;;;;;10.90;99.90;;;;;;5113141;27;20367;-65
2022/06/03 03:24:44;;;;;;;;;;;10.90;99.90;;;;;;5113473;28;19914;-65
2022/06/03 03:27:21;;;;;;;;;;;10.80;99.90;;;;;;5113133;28;20002;-65
2022/06/03 03:29:49;;;;;;;;;;;10.80;99.90;;;;;;5113199;28;19907;-66
2022/06/03 03:32:33;;;;;;;;;;;10.70;99.90;;;;;;5112825;28;19911;-66
2022/06/03 03:35:17;;;;;;;;;;;10.70;99.90;;;;;;5113183;28;20359;-66
2022/06/03 03:38:01;;;;;;;;;;;10.70;99.90;;;;;;5113055;28;19931;-65
2022/06/03 03:40:33;;;;;;;;;;;10.70;99.90;;;;;;5113143;28;20352;-65
2022/06/03 03:43:07;;;;;;;;;;;10.60;99.90;;;;;;5112970;28;19904;-65
2022/06/03 03:45:39;;;;;;;;;;;10.60;99.90;;;;;;5113160;28;19998;-65
2022/06/03 03:48:10;;;;;;;;;;;10.50;99.90;;;;;;5112852;28;20383;-65
2022/06/03 03:50:41;;;;;;;;;;;10.50;99.90;;;;;;5112742;28;19919;-67
2022/06/03 03:53:29;;;;;;;;;;;10.40;99.90;;;;;;5113269;28;19903;-69
2022/06/03 03:56:10;;;;;;;;;;;10.40;99.90;;;;;;5113138;28;19931;-65
2022/06/03 03:58:36;;;;;;;;;;;10.30;99.90;;;;;;5112473;28;19908;-65
2022/06/03 04:01:20;;;;;;;;;;;10.30;99.90;;;;;;5112865;28;19918;-66
2022/06/03 04:04:04;;;;;;;;;;;10.30;99.90;;;;;;5112998;28;19908;-66
2022/06/03 04:06:39;;;;;;;;;;;10.40;99.90;;;;;;5112810;28;19904;-65
2022/06/03 04:09:07;;;;;;;;;;;10.50;99.90;;;;;;5112617;28;19943;-65
2022/06/03 04:11:33;;;;;;;;;;;10.50;99.90;;;;;;5112366;28;19908;-64
2022/06/03 04:14:27;;;;;;;;;;;10.60;99.90;;;;;;5112116;28;19917;-65
2022/06/03 04:16:59;;;;;;;;;;;10.60;99.90;;;;;;5109646;28;20325;-65
2022/06/03 04:19:43;;;;;;;;;;;10.70;99.90;;;;;;5109311;28;20026;-65
2022/06/03 04:22:20;;;;;;;;;;;10.80;99.90;;;;;;5111384;28;20314;-65
2022/06/03 04:24:51;;;;;;;;;;;10.80;99.90;;;;;;5112435;28;19930;-64
2022/06/03 04:27:40;;;;;;;;;;;10.90;99.90;;;;;;5112303;28;19943;-64
2022/06/03 04:30:15;;;;;;;;;;;11.00;99.90;;;;;;5110827;28;19912;-66
2022/06/03 04:32:43;;;;;;;;;;;11.00;99.90;;;;;;5108866;28;19903;-65
2022/06/03 04:35:09;;;;;;;;;;;11.00;99.90;;;;;;5107359;28;19908;-65
2022/06/03 04:37:52;;;;;;;;;;;11.00;99.90;;;;;;5109803;28;19980;-67
2022/06/03 04:40:38;;;;;;;;;;;11.10;99.90;;;;;;5111783;28;19965;-65
2022/06/03 04:43:03;;;;;;;;;;;11.20;99.90;;;;;;5111680;28;19912;-66
2022/06/03 04:45:44;;;;;;;;;;;11.20;99.90;;;;;;5111671;28;19915;-65
2022/06/03 04:48:12;;;;;;;;;;;11.30;99.90;;;;;;5111454;28;20015;-65
2022/06/03 04:50:56;;;;;;;;;;;11.40;99.90;;;;;;5093028;28;20393;-65
2022/06/03 04:53:44;;;;;;;;;;;11.40;99.90;;;;;;5111824;28;19908;-65
2022/06/03 04:56:21;;;;;;;;;;;11.50;99.90;;;;;;5111403;28;19931;-65
2022/06/03 04:59:05;;;;;;;;;;;11.60;99.90;;;;;;5111246;28;19923;-65
2022/06/03 05:01:35;;;;;;;;;;;11.70;99.90;;;;;;5109744;28;19953;-65
2022/06/03 05:04:09;;;;;;;;;;;11.80;99.90;;;;;;5108373;28;20360;-65
2022/06/03 05:06:53;;;;;;;;;;;11.90;99.90;;;;;;5108009;28;19904;-66
2022/06/03 05:09:38;;;;;;;;;;;12.00;99.90;;;;;;5111229;28;19915;-65
2022/06/03 05:12:03;;;;;;;;;;;12.20;99.90;;;;;;5111423;28;19904;-65
2022/06/03 05:14:47;;;;;;;;;;;12.30;99.90;;;;;;5111031;28;19956;-65
2022/06/03 05:17:32;;;;;;;;;;;12.30;99.90;;;;;;5108779;28;20738;-66
2022/06/03 05:20:06;;;;;;;;;;;12.40;99.90;;;;;;5107653;28;19915;-65
2022/06/03 05:23:10;;;;;;;;;;;12.40;99.90;;;;;;5110284;28;20246;-66
2022/06/03 05:25:48;;;;;;;;;;;12.50;99.90;;;;;;5047996;28;19999;-65
2022/06/03 05:28:48;;;;;;;;;;;12.60;99.90;;;;;;5047929;28;19952;-65
2022/06/03 05:31:26;;;;;;;;;;;12.70;99.90;;;;;;5033229;28;19904;-66
2022/06/03 05:34:10;;;;;;;;;;;12.80;99.90;;;;;;5102467;28;19953;-65
2022/06/03 05:36:52;;;;;;;;;;;13.00;99.90;;;;;;5107578;28;20368;-66
2022/06/03 05:39:37;;;;;;;;;;;13.10;99.90;;;;;;5106603;28;19908;-66
2022/06/03 05:42:32;;;;;;;;;;;13.10;99.90;;;;;;5107679;28;20390;-66
2022/06/03 05:45:03;;;;;;;;;;;13.10;99.90;;;;;;5097087;28;19951;-65
2022/06/03 05:47:35;;;;;;;;;;;13.20;99.90;;;;;;5110817;28;20002;-65
2022/06/03 05:50:05;;;;;;;;;;;13.40;99.90;;;;;;5108760;28;19956;-65
2022/06/03 05:52:36;;;;;;;;;;;13.50;99.90;;;;;;5107877;28;19930;-66
2022/06/03 05:55:20;;;;;;;;;;;13.70;99.90;;;;;;5108739;28;19930;-66
2022/06/03 05:57:51;;;;;;;;;;;13.80;99.90;;;;;;5114666;28;19965;-66
2022/06/03 06:00:23;;;;;;;;;;;14.00;99.90;;;;;;5114293;28;20418;-65
2022/06/03 06:03:15;;;;;;;;;;;14.10;99.90;;;;;;5111951;28;19907;-66
2022/06/03 06:05:52;;;;;;;;;;;14.10;99.90;;;;;;5087921;28;20006;-65
2022/06/03 06:08:18;;;;;;;;;;;14.30;99.90;;;;;;5114231;28;19914;-65
2022/06/03 06:10:54;;;;;;;;;;;14.40;99.90;;;;;;5115110;28;19903;-66
2022/06/03 06:13:22;;;;;;;;;;;14.70;99.90;;;;;;5114809;28;20291;-65
2022/06/03 06:15:56;;;;;;;;;;;14.80;99.90;;;;;;5113734;28;19916;-66
2022/06/03 06:18:24;;;;;;;;;;;14.70;99.90;;;;;;5111979;28;19946;-66
2022/06/03 06:20:50;;;;;;;;;;;14.60;99.90;;;;;;5111753;28;19912;-66
2022/06/03 06:23:21;;;;;;;;;;;14.70;99.90;;;;;;5113644;28;19903;-66
2022/06/03 06:25:58;;;;;;;;;;;14.80;99.90;;;;;;5111811;28;19907;-66
2022/06/03 06:28:29;;;;;;;;;;;15.20;99.90;;;;;;5111255;28;19927;-67
2022/06/03 06:31:31;;;;;;;;;;;15.50;99.90;;;;;;5114391;28;20377;-66
2022/06/03 06:33:59;;;;;;;;;;;15.90;99.90;;;;;;5047914;28;20534;-66
2022/06/03 06:36:24;;;;;;;;;;;16.10;99.90;;;;;;5099125;28;19915;-66
2022/06/03 06:39:10;;;;;;;;;;;16.10;99.90;;;;;;5113561;28;19919;-66
2022/06/03 06:41:42;;;;;;;;;;;16.00;99.90;;;;;;5113559;28;19966;-67
2022/06/03 06:44:09;;;;;;;;;;;15.90;99.90;;;;;;5114068;28;19914;-66
2022/06/03 06:46:37;;;;;;;;;;;15.90;99.90;;;;;;5113910;28;20547;-66
2022/06/03 06:49:09;;;;;;;;;;;16.00;99.90;;;;;;5113845;28;19907;-66
2022/06/03 06:51:53;;;;;;;;;;;16.30;99.90;;;;;;5113929;28;19904;-66
2022/06/03 06:54:36;;;;;;;;;;;16.60;99.90;;;;;;5114091;28;19904;-66
2022/06/03 06:57:04;;;;;;;;;;;16.60;99.90;;;;;;5113907;28;20007;-66
2022/06/03 06:59:35;;;;;;;;;;;16.90;99.90;;;;;;5113717;28;19939;-66
2022/06/03 07:02:03;;;;;;;;;;;17.30;99.90;;;;;;5111724;28;19919;-67
2022/06/03 07:04:31;;;;;;;;;;;17.70;99.90;;;;;;5110553;28;20406;-67
2022/06/03 07:07:09;;;;;;;;;;;18.10;99.90;;;;;;5111135;28;20007;-67
2022/06/03 07:09:46;;;;;;;;;;;18.50;99.90;;;;;;5113320;28;20006;-67
2022/06/03 07:12:13;;;;;;;;;;;18.70;99.90;;;;;;5113953;28;20257;-68
2022/06/03 07:15:17;;;;;;;;;;;18.90;99.90;;;;;;5112656;28;19899;-65
2022/06/03 07:20:37;;;;;;;;;;;18.90;99.90;;;;;;5084016;28;19927;-67
2022/06/03 07:23:06;;;;;;;;;;;19.20;99.90;;;;;;5106293;28;19947;-67
2022/06/03 07:25:39;;;;;;;;;;;19.50;99.90;;;;;;5113337;28;20369;-66
2022/06/03 07:28:08;;;;;;;;;;;19.70;99.90;;;;;;5114734;27;19904;-64
2022/06/03 07:30:42;;;;;;;;;;;20.00;99.90;;;;;;5134044;27;19907;-67
2022/06/03 07:33:15;;;;;;;;;;;20.50;99.90;;;;;;5133994;27;19911;-67
2022/06/03 07:35:44;;;;;;;;;;;20.60;99.90;;;;;;5133417;27;20375;-67
2022/06/03 07:38:10;;;;;;;;;;;20.70;99.90;;;;;;5133639;27;19919;-67
2022/06/03 07:40:40;;;;;;;;;;;21.10;99.90;;;;;;5133650;27;19956;-66
2022/06/03 07:43:06;;;;;;;;;;;21.60;99.90;;;;;;5133481;27;19903;-67
2022/06/03 07:45:35;;;;;;;;;;;21.60;99.90;;;;;;5133424;27;20009;-67
2022/06/03 07:48:02;;;;;;;;;;;22.00;99.70;;;;;;5133705;27;19957;-66
2022/06/03 07:50:29;;;;;;;;;;;22.40;99.60;;;;;;5116508;27;19908;-67
2022/06/03 07:52:59;;;;;;;;;;;23.20;98.90;;;;;;5113317;28;19911;-67
2022/06/03 07:55:25;;;;;;;;;;;24.60;96.90;;;;;;5113038;28;19903;-67
2022/06/03 07:57:53;;;;;;;;;;;25.10;94.40;;;;;;5112705;28;19911;-67
2022/06/03 08:00:20;;;;;;;;;;;24.60;93.60;;;;;;5112894;28;19904;-68
2022/06/03 08:02:45;;;;;;;;;;;23.90;92.40;;;;;;5113038;28;19904;-66
2022/06/03 08:05:17;;;;;;;;;;;23.90;92.10;;;;;;5112593;28;19915;-66
2022/06/03 08:13:15;;;;;;;;;;;23.70;94.20;;;;;;5112685;28;19926;-67
2022/06/03 08:15:43;;;;;;;;;;;23.60;94.80;;;;;;5112991;28;20287;-68
2022/06/03 08:18:13;;;;;;;;;;;23.30;93.90;;;;;;5109194;28;19911;-66
2022/06/03 08:20:45;;;;;;;;;;;23.20;95.60;;;;;;5108397;28;20307;-66
2022/06/03 08:23:11;;;;;;;;;;;22.90;96.30;;;;;;5111878;28;19907;-65
2022/06/03 08:25:41;;;;;;;;;;;22.70;96.30;;;;;;5112376;28;19934;-66
2022/06/03 08:28:11;;;;;;;;;;;22.40;97.20;;;;;;5112195;28;19915;-66
2022/06/03 08:30:38;;;;;;;;;;;22.70;97.50;;;;;;5111908;28;20485;-66
2022/06/03 08:33:05;;;;;;;;;;;23.90;96.30;;;;;;5112167;28;19982;-66
2022/06/03 08:35:32;;;;;;;;;;;25.10;92.80;;;;;;5110452;28;20583;-66
2022/06/03 08:38:01;;;;;;;;;;;26.40;89.80;;;;;;5111639;28;19915;-66
2022/06/03 08:40:30;;;;;;;;;;;27.00;85.90;;;;;;5111837;28;19908;-66
2022/06/03 08:42:56;;;;;;;;;;;27.60;79.50;;;;;;5109735;28;20284;-68
2022/06/03 08:45:31;;;;;;;;;;;28.00;76.00;;;;;;5120891;27;19907;-68
2022/06/03 08:47:58;;;;;;;;;;;28.20;67.60;;;;;;5091477;28;20026;-72
2022/06/03 08:50:29;;;;;;;;;;;28.50;68.20;;;;;;5107512;28;19910;-65
2022/06/03 08:52:58;;;;;;;;;;;28.70;58.60;;;;;;5111964;28;19946;-65
2022/06/03 08:55:30;;;;;;;;;;;29.10;56.20;;;;;;5111480;28;19904;-66
2022/06/03 08:57:59;;;;;;;;;;;29.30;53.30;;;;;;5108306;28;20447;-66
2022/06/03 09:00:30;;;;;;;;;;;29.50;49.10;;;;;;5101718;27;19903;-67
2022/06/03 09:03:16;;;;;;;;;;;29.60;45.50;;;;;;5091194;28;19961;-66
2022/06/03 09:05:44;;;;;;;;;;;29.60;42.70;;;;;;5090688;28;19984;-66
2022/06/03 09:08:13;;;;;;;;;;;30.20;41.00;;;;;;5091356;28;19994;-66
2022/06/03 09:10:45;;;;;;;;;;;30.00;35.30;;;;;;5090953;28;20352;-66
2022/06/03 09:13:16;;;;;;;;;;;30.20;33.40;;;;;;5091245;28;20093;-67
2022/06/03 09:15:43;;;;;;;;;;;30.50;31.20;;;;;;5090688;28;19908;-66
2022/06/03 09:18:13;;;;;;;;;;;31.20;29.00;;;;;;5091002;28;20341;-67
2022/06/03 09:20:42;;;;;;;;;;;31.50;27.30;;;;;;5109036;28;19964;-67
2022/06/03 09:23:10;;;;;;;;;;;31.60;28.80;;;;;;5111279;28;19910;-67
2022/06/03 09:25:40;;;;;;;;;;;31.90;24.70;;;;;;5111271;28;19907;-66
2022/06/03 09:28:07;;;;;;;;;;;32.00;24.50;;;;;;5111090;28;20009;-66
2022/06/03 09:30:38;;;;;;;;;;;31.90;24.40;;;;;;5110230;28;19911;-67
2022/06/03 09:33:05;;;;;;;;;;;32.00;23.40;;;;;;5111019;28;19921;-67
2022/06/03 09:35:32;;;;;;;;;;;32.60;25.10;;;;;;5110884;28;19904;-67
2022/06/03 09:38:00;;;;;;;;;;;32.80;23.50;;;;;;5110832;28;20375;-67
2022/06/03 09:40:29;;;;;;;;;;;32.80;23.30;;;;;;5111151;28;19948;-67
2022/06/03 09:42:55;;;;;;;;;;;33.20;25.00;;;;;;5110867;28;19904;-68
2022/06/03 09:45:23;;;;;;;;;;;33.90;24.20;;;;;;5108677;28;19908;-67
2022/06/03 09:47:49;;;;;;;;;;;33.90;23.20;;;;;;5110853;28;20379;-67
2022/06/03 09:50:16;;;;;;;;;;;33.50;21.20;;;;;;5110557;28;19910;-67
2022/06/03 09:52:41;;;;;;;;;;;34.20;22.10;;;;;;5110843;28;19907;-67
2022/06/03 09:55:18;;;;;;;;;;;34.20;19.80;;;;;;5110942;28;19907;-67
2022/06/03 09:57:44;;;;;;;;;;;34.00;18.20;;;;;;5111184;28;20022;-67
2022/06/03 10:00:16;;;;;;;;;;;34.60;19.50;;;;;;5110853;28;20010;-67
2022/06/03 10:02:42;;;;;;;;;;;35.50;20.00;;;;;;5108055;28;19915;-67
2022/06/03 10:05:08;;;;;;;;;;;35.60;18.20;;;;;;5107594;28;19911;-67
2022/06/03 10:07:34;;;;;;;;;;;35.90;18.10;;;;;;5110264;28;20730;-66
2022/06/03 10:12:49;;;;;;;;;;;36.30;17.40;;;;;;5110717;28;20378;-67
2022/06/03 10:18:03;;;;;;;;;;;36.50;16.30;;;;;;5110094;28;19918;-67
2022/06/03 10:20:29;;;;;;;;;;;37.30;18.20;;;;;;5110320;28;20402;-67
2022/06/03 10:22:55;;;;;;;;;;;37.20;16.10;;;;;;5109766;28;19904;-66
2022/06/03 10:25:20;;;;;;;;;;;37.30;17.30;;;;;;5107481;28;19911;-67
2022/06/03 10:27:46;;;;;;;;;;;37.60;16.00;;;;;;5107633;28;19908;-66
2022/06/03 10:30:13;;;;;;;;;;;36.50;18.20;;;;;;5110378;28;19908;-66
2022/06/03 10:32:39;;;;;;;;;;;37.70;18.10;;;;;;5110410;28;20450;-66
2022/06/03 10:35:11;;;;;;;;;;;37.70;18.50;;;;;;5110292;28;19907;-67
2022/06/03 10:37:37;;;;;;;;;;;38.70;17.90;;;;;;5110628;28;19916;-66
2022/06/03 10:40:08;;;;;;;;;;;38.10;16.50;;;;;;5110413;28;19904;-66
2022/06/03 10:42:36;;;;;;;;;;;37.80;16.70;;;;;;5111810;28;20304;-65
2022/06/03 10:45:01;;;;;;;;;;;38.30;16.60;;;;;;5113914;28;20372;-66
2022/06/03 10:47:35;;;;;;;;;;;37.30;18.00;;;;;;5114391;28;19961;-65
2022/06/03 10:50:04;;;;;;;;;;;37.40;17.40;;;;;;5110586;28;19908;-67
2022/06/03 11:01:10;;;;;;;;;;;38.40;15.30;;;;;;5093430;28;19925;-72
2022/06/03 11:03:39;;;;;;;;;;;38.40;17.40;;;;;;5092565;28;19908;-72
2022/06/03 11:06:06;;;;;;;;;;;38.40;16.60;;;;;;5090117;28;20281;-68
2022/06/03 11:08:47;;;;;;;;;;;37.90;17.50;;;;;;5103495;28;19988;-71
2022/06/03 11:11:12;;;;;;;;;;;39.30;18.00;;;;;;5110144;28;20027;-68
2022/06/03 11:13:41;;;;;;;;;;;38.50;16.30;;;;;;5108346;28;19903;-66
2022/06/03 11:16:19;;;;;;;;;;;39.10;16.20;;;;;;5109821;28;20666;-67
2022/06/03 11:18:45;;;;;;;;;;;38.50;15.30;;;;;;5110735;28;20376;-66
2022/06/03 11:21:24;;;;;;;;;;;37.90;16.90;;;;;;5110705;28;19963;-66
2022/06/03 11:23:50;;;;;;;;;;;37.40;16.80;;;;;;5110300;28;19904;-68
2022/06/03 11:26:16;;;;;;;;;;;37.70;16.80;;;;;;5110340;28;19908;-65
2022/06/03 11:28:51;;;;;;;;;;;37.10;16.60;;;;;;5110218;28;19907;-65
2022/06/03 11:31:17;;;;;;;;;;;38.00;16.00;;;;;;5110225;28;20005;-65
2022/06/03 11:33:54;;;;;;;;;;;38.20;16.50;;;;;;5110425;28;20011;-67
2022/06/03 11:36:38;;;;;;;;;;;37.70;16.50;;;;;;5109748;28;19913;-67
2022/06/03 11:39:13;;;;;;;;;;;37.70;16.70;;;;;;5110594;28;19930;-67
2022/06/03 11:41:56;;;;;;;;;;;37.80;15.40;;;;;;5110149;28;19910;-67
2022/06/03 11:44:25;;;;;;;;;;;38.20;16.10;;;;;;5110078;28;19904;-67
2022/06/03 11:46:54;;;;;;;;;;;38.90;14.80;;;;;;5110059;28;19908;-67
2022/06/03 11:49:21;;;;;;;;;;;39.20;14.30;;;;;;5109668;28;19914;-68
2022/06/03 11:51:47;;;;;;;;;;;38.60;14.40;;;;;;5109908;28;19914;-69
2022/06/03 11:54:21;;;;;;;;;;;38.60;15.50;;;;;;5107802;28;19916;-68
2022/06/03 11:56:48;;;;;;;;;;;39.30;14.10;;;;;;5110263;28;19915;-69
2022/06/03 11:59:13;;;;;;;;;;;38.50;14.00;;;;;;5109744;28;20431;-68
2022/06/03 12:01:51;;;;;;;;;;;39.10;14.30;;;;;;5109703;28;19986;-70
2022/06/03 12:04:19;;;;;;;;;;;39.00;14.00;;;;;;5108972;28;19930;-68
2022/06/03 12:06:49;;;;;;;;;;;38.30;14.20;;;;;;5107629;28;19904;-66
2022/06/03 12:09:24;;;;;;;;;;;37.40;14.70;;;;;;5109442;28;19904;-68
2022/06/03 12:14:45;;;;;;;;;;;35.00;15.90;;;;;;5109159;28;20263;-68
2022/06/03 12:17:11;;;;;;;;;;;33.60;18.70;;;;;;5108635;27;19957;-69
2022/06/03 12:19:39;;;;;;;;;;;34.80;18.80;;;;;;5109138;28;19908;-68
2022/06/03 12:22:18;;;;;;;;;;;34.80;18.30;;;;;;5109686;28;19908;-68
2022/06/03 12:24:45;;;;;;;;;;;35.40;19.10;;;;;;5109069;28;20461;-68
2022/06/03 12:27:16;;;;;;;;;;;35.40;18.30;;;;;;5109053;28;19910;-68
2022/06/03 12:29:47;;;;;;;;;;;34.40;18.90;;;;;;5095675;28;20002;-68
2022/06/03 12:32:19;;;;;;;;;;;34.10;20.40;;;;;;5089114;28;19958;-69
2022/06/03 12:34:45;;;;;;;;;;;33.50;20.40;;;;;;5088981;28;19915;-65
2022/06/03 12:37:25;;;;;;;;;;;34.20;20.30;;;;;;5088715;28;20324;-64
2022/06/03 12:40:00;;;;;;;;;;;34.80;19.90;;;;;;5088783;28;19904;-65
2022/06/03 12:42:25;;;;;;;;;;;33.90;20.00;;;;;;5088586;28;20296;-63
2022/06/03 12:45:14;;;;;;;;;;;33.20;20.40;;;;;;5088509;28;20435;-64
2022/06/03 12:47:48;;;;;;;;;;;33.10;18.90;;;;;;5088001;28;20360;-64
2022/06/03 12:50:31;;;;;;;;;;;33.30;20.30;;;;;;5102991;28;19904;-64
2022/06/03 12:52:59;;;;;;;;;;;33.50;19.80;;;;;;5108086;28;19931;-64
2022/06/03 12:55:26;;;;;;;;;;;32.90;20.60;;;;;;5107098;28;19912;-63
2022/06/03 12:57:56;;;;;;;;;;;32.00;21.20;;;;;;5108085;28;19938;-63
2022/06/03 13:00:25;;;;;;;;;;;30.40;22.60;;;;;;5107929;28;19904;-64
2022/06/03 13:03:26;;;;;;;;;;;30.10;24.20;;;;;;5107990;28;19954;-64
2022/06/03 13:05:56;;;;;;;;;;;29.60;25.60;;;;;;5107662;28;19947;-64
2022/06/03 13:08:28;;;;;;;;;;;29.00;26.70;;;;;;5107821;28;20367;-64
2022/06/03 13:11:06;;;;;;;;;;;29.40;25.30;;;;;;5107849;28;19911;-64
2022/06/03 13:13:32;;;;;;;;;;;29.30;25.70;;;;;;5108098;28;19903;-63
2022/06/03 13:16:16;;;;;;;;;;;29.20;26.20;;;;;;5107642;28;19908;-64
2022/06/03 13:18:43;;;;;;;;;;;29.50;26.40;;;;;;5107673;28;19908;-64
2022/06/03 13:21:09;;;;;;;;;;;29.70;25.80;;;;;;5107522;28;19907;-64
2022/06/03 13:23:34;;;;;;;;;;;29.50;25.80;;;;;;5107628;28;19952;-64
2022/06/03 13:26:19;;;;;;;;;;;29.40;26.40;;;;;;5108058;28;19904;-64
2022/06/03 13:28:46;;;;;;;;;;;28.80;25.60;;;;;;5107793;28;19904;-63
2022/06/03 13:31:14;;;;;;;;;;;28.10;27.70;;;;;;5107317;28;19903;-64
2022/06/03 13:33:54;;;;;;;;;;;27.60;28.20;;;;;;5108013;28;19908;-64
2022/06/03 13:36:35;;;;;;;;;;;27.20;29.90;;;;;;5107085;28;19919;-65
2022/06/03 13:39:01;;;;;;;;;;;27.00;30.40;;;;;;5107724;28;19923;-65
2022/06/03 13:44:40;;;;;;;;;;;26.90;31.50;;;;;;5107381;28;19911;-65
2022/06/03 13:47:08;;;;;;;;;;;27.10;32.80;;;;;;5107593;28;19904;-64
2022/06/03 13:49:34;;;;;;;;;;;27.20;30.70;;;;;;5107294;28;19914;-64
2022/06/03 13:52:11;;;;;;;;;;;27.30;30.00;;;;;;5107218;28;19912;-64
2022/06/03 13:54:36;;;;;;;;;;;27.10;29.50;;;;;;5107499;28;19908;-64
2022/06/03 13:57:08;;;;;;;;;;;27.10;29.20;;;;;;5107039;28;19916;-64
2022/06/03 13:59:37;;;;;;;;;;;26.70;30.00;;;;;;5107058;28;20360;-65
2022/06/03 14:02:09;;;;;;;;;;;26.60;29.90;;;;;;5107091;28;19911;-65
2022/06/03 14:04:45;;;;;;;;;;;26.50;29.60;;;;;;5107174;28;19942;-64
2022/06/03 14:07:10;;;;;;;;;;;26.50;30.20;;;;;;5106890;28;20334;-64
2022/06/03 14:09:36;;;;;;;;;;;26.00;30.30;;;;;;5107910;28;19961;-63
2022/06/03 14:12:19;;;;;;;;;;;25.70;32.20;;;;;;5107399;28;20287;-63
2022/06/03 14:15:04;;;;;;;;;;;25.50;31.90;;;;;;5106460;28;20379;-64
2022/06/03 14:17:32;;;;;;;;;;;25.30;32.50;;;;;;5108382;28;20250;-63
2022/06/03 14:19:58;;;;;;;;;;;25.20;32.30;;;;;;5110972;28;19911;-65
2022/06/03 14:22:43;;;;;;;;;;;25.00;33.00;;;;;;5111454;28;19968;-64
2022/06/03 14:25:11;;;;;;;;;;;24.90;34.10;;;;;;5111363;28;20069;-64
2022/06/03 14:27:37;;;;;;;;;;;24.60;33.50;;;;;;5110929;28;19908;-63
2022/06/03 14:30:14;;;;;;;;;;;24.50;34.60;;;;;;5111091;28;19910;-64
2022/06/03 14:32:45;;;;;;;;;;;24.70;34.50;;;;;;5110959;28;20325;-65
2022/06/03 14:35:14;;;;;;;;;;;24.60;34.30;;;;;;5110808;28;20368;-65
2022/06/03 14:37:46;;;;;;;;;;;24.70;35.60;;;;;;5110598;28;19927;-64
2022/06/03 14:40:19;;;;;;;;;;;24.70;33.70;;;;;;5110948;28;20531;-63
2022/06/03 14:42:44;;;;;;;;;;;24.50;34.20;;;;;;5111041;28;19904;-64
2022/06/03 14:45:13;;;;;;;;;;;24.30;33.80;;;;;;5110732;28;20268;-63
2022/06/03 14:47:50;;;;;;;;;;;24.20;35.20;;;;;;5110930;28;19908;-64
2022/06/03 14:50:21;;;;;;;;;;;24.10;34.40;;;;;;5110050;28;19908;-64
2022/06/03 14:52:49;;;;;;;;;;;23.90;35.20;;;;;;5110773;28;19958;-64
2022/06/03 14:55:27;;;;;;;;;;;23.80;34.70;;;;;;5110675;28;19904;-64
2022/06/03 14:58:14;;;;;;;;;;;23.80;35.50;;;;;;5110596;28;19919;-64
2022/06/03 15:00:42;;;;;;;;;;;24.00;35.70;;;;;;5110369;28;20321;-64
2022/06/03 15:03:15;;;;;;;;;;;24.30;35.00;;;;;;5110396;28;19904;-64
2022/06/03 15:05:47;;;;;;;;;;;24.50;35.90;;;;;;5110639;28;19919;-63
2022/06/03 15:08:27;;;;;;;;;;;24.50;36.00;;;;;;5110934;28;19907;-63
2022/06/03 15:11:00;;;;;;;;;;;24.60;36.30;;;;;;5110316;28;20369;-64
2022/06/03 15:13:26;;;;;;;;;;;24.60;37.00;;;;;;5110009;28;19910;-64
2022/06/03 15:15:52;;;;;;;;;;;24.50;38.00;;;;;;5110185;28;19907;-64
2022/06/03 15:18:19;;;;;;;;;;;24.10;36.10;;;;;;5110295;28;19934;-65
2022/06/03 15:21:14;;;;;;;;;;;24.10;36.60;;;;;;5109888;28;19961;-64